sensor_id;sensor_type;location;lat;lon;timestamp;P1;durP1;ratioP1;P2;durP2;ratioP2
62848;SDS011;48941;49.516;8.286;2022-10-31T00:01:26;14.55;;;8.13;;
62848;SDS011;48941;49.516;8.286;2022-10-31T00:03:55;17.13;;;7.82;;
62848;SDS011;48941;49.516;8.286;2022-10-31T00:06:23;13.20;;;8.18;;
62848;SDS011;48941;49.516;8.286;2022-10-31T00:08:53;13.95;;;8.35;;
62848;SDS011;48941;49.516;8.286;2022-10-31T00:11:22;19.23;;;8.40;;
62848;SDS011;48941;49.516;8.286;2022-10-31T00:13:51;17.48;;;7.88;;
62848;SDS011;48941;49.516;8.286;2022-10-31T00:16:19;13.57;;;8.23;;
62848;SDS011;48941;49.516;8.286;2022-10-31T00:18:49;12.25;;;7.38;;
62848;SDS011;48941;49.516;8.286;2022-10-31T00:21:17;15.63;;;7.85;;
62848;SDS011;48941;49.516;8.286;2022-10-31T00:23:46;14.23;;;6.95;;
62848;SDS011;48941;49.516;8.286;2022-10-31T00:26:16;14.88;;;7.28;;
62848;SDS011;48941;49.516;8.286;2022-10-31T00:28:44;10.48;;;6.65;;
62848;SDS011;48941;49.516;8.286;2022-10-31T00:31:13;11.77;;;7.97;;
62848;SDS011;48941;49.516;8.286;2022-10-31T00:33:41;22.13;;;9.82;;
62848;SDS011;48941;49.516;8.286;2022-10-31T00:36:11;14.50;;;7.97;;
62848;SDS011;48941;49.516;8.286;2022-10-31T00:38:40;16.30;;;8.38;;
62848;SDS011;48941;49.516;8.286;2022-10-31T00:41:09;15.15;;;7.90;;
62848;SDS011;48941;49.516;8.286;2022-10-31T00:43:38;16.00;;;7.80;;
62848;SDS011;48941;49.516;8.286;2022-10-31T00:46:06;14.38;;;8.15;;
62848;SDS011;48941;49.516;8.286;2022-10-31T00:48:34;15.40;;;7.78;;
62848;SDS011;48941;49.516;8.286;2022-10-31T00:51:02;15.57;;;7.85;;
62848;SDS011;48941;49.516;8.286;2022-10-31T00:53:30;16.60;;;7.78;;
62848;SDS011;48941;49.516;8.286;2022-10-31T00:55:58;16.05;;;8.05;;
62848;SDS011;48941;49.516;8.286;2022-10-31T00:58:26;14.73;;;8.38;;
62848;SDS011;48941;49.516;8.286;2022-10-31T01:00:55;15.07;;;9.05;;
62848;SDS011;48941;49.516;8.286;2022-10-31T01:03:25;13.93;;;8.23;;
62848;SDS011;48941;49.516;8.286;2022-10-31T01:05:55;13.23;;;8.98;;
62848;SDS011;48941;49.516;8.286;2022-10-31T01:08:25;17.88;;;8.40;;
62848;SDS011;48941;49.516;8.286;2022-10-31T01:11:03;15.48;;;8.23;;
62848;SDS011;48941;49.516;8.286;2022-10-31T01:13:34;16.30;;;8.07;;
62848;SDS011;48941;49.516;8.286;2022-10-31T01:16:05;12.80;;;7.60;;
62848;SDS011;48941;49.516;8.286;2022-10-31T01:18:35;13.90;;;7.38;;
62848;SDS011;48941;49.516;8.286;2022-10-31T01:21:04;10.93;;;6.38;;
62848;SDS011;48941;49.516;8.286;2022-10-31T01:23:34;13.93;;;6.88;;
62848;SDS011;48941;49.516;8.286;2022-10-31T01:26:06;12.35;;;5.57;;
62848;SDS011;48941;49.516;8.286;2022-10-31T01:28:36;14.15;;;5.80;;
62848;SDS011;48941;49.516;8.286;2022-10-31T01:31:07;12.40;;;5.97;;
62848;SDS011;48941;49.516;8.286;2022-10-31T01:33:37;14.23;;;5.88;;
62848;SDS011;48941;49.516;8.286;2022-10-31T01:36:15;13.55;;;6.07;;
62848;SDS011;48941;49.516;8.286;2022-10-31T01:38:47;17.05;;;6.10;;
62848;SDS011;48941;49.516;8.286;2022-10-31T01:41:17;16.02;;;6.65;;
62848;SDS011;48941;49.516;8.286;2022-10-31T01:43:48;12.80;;;6.47;;
62848;SDS011;48941;49.516;8.286;2022-10-31T01:46:19;8.68;;;5.97;;
62848;SDS011;48941;49.516;8.286;2022-10-31T01:48:52;14.55;;;6.53;;
62848;SDS011;48941;49.516;8.286;2022-10-31T01:51:22;13.43;;;6.45;;
62848;SDS011;48941;49.516;8.286;2022-10-31T01:53:54;12.63;;;6.37;;
62848;SDS011;48941;49.516;8.286;2022-10-31T01:56:25;12.00;;;6.88;;
62848;SDS011;48941;49.516;8.286;2022-10-31T01:58:54;13.38;;;6.60;;
62848;SDS011;48941;49.516;8.286;2022-10-31T02:01:25;11.75;;;6.50;;
62848;SDS011;48941;49.516;8.286;2022-10-31T02:03:53;14.95;;;6.20;;
62848;SDS011;48941;49.516;8.286;2022-10-31T02:06:27;14.07;;;7.32;;
62848;SDS011;48941;49.516;8.286;2022-10-31T02:09:03;14.05;;;7.15;;
62848;SDS011;48941;49.516;8.286;2022-10-31T02:11:32;11.05;;;5.50;;
62848;SDS011;48941;49.516;8.286;2022-10-31T02:14:03;11.77;;;5.95;;
62848;SDS011;48941;49.516;8.286;2022-10-31T02:16:33;9.38;;;6.20;;
62848;SDS011;48941;49.516;8.286;2022-10-31T02:19:01;13.73;;;6.03;;
62848;SDS011;48941;49.516;8.286;2022-10-31T02:21:33;10.85;;;6.18;;
62848;SDS011;48941;49.516;8.286;2022-10-31T02:24:15;12.48;;;6.15;;
62848;SDS011;48941;49.516;8.286;2022-10-31T02:26:58;12.48;;;5.63;;
62848;SDS011;48941;49.516;8.286;2022-10-31T02:32:29;9.93;;;4.88;;
62848;SDS011;48941;49.516;8.286;2022-10-31T02:35:16;10.40;;;6.05;;
62848;SDS011;48941;49.516;8.286;2022-10-31T02:37:55;12.65;;;5.80;;
62848;SDS011;48941;49.516;8.286;2022-10-31T02:40:35;9.57;;;5.55;;
62848;SDS011;48941;49.516;8.286;2022-10-31T02:43:09;11.48;;;5.95;;
62848;SDS011;48941;49.516;8.286;2022-10-31T02:45:45;13.00;;;5.60;;
62848;SDS011;48941;49.516;8.286;2022-10-31T02:48:19;12.25;;;5.97;;
62848;SDS011;48941;49.516;8.286;2022-10-31T02:50:54;9.00;;;5.85;;
62848;SDS011;48941;49.516;8.286;2022-10-31T02:53:24;10.87;;;5.80;;
62848;SDS011;48941;49.516;8.286;2022-10-31T02:55:57;10.85;;;5.45;;
62848;SDS011;48941;49.516;8.286;2022-10-31T02:58:27;10.23;;;5.50;;
62848;SDS011;48941;49.516;8.286;2022-10-31T03:01:19;15.30;;;5.30;;
62848;SDS011;48941;49.516;8.286;2022-10-31T03:04:00;12.02;;;6.05;;
62848;SDS011;48941;49.516;8.286;2022-10-31T03:06:40;12.80;;;5.80;;
62848;SDS011;48941;49.516;8.286;2022-10-31T03:09:15;13.38;;;6.57;;
62848;SDS011;48941;49.516;8.286;2022-10-31T03:11:51;18.13;;;5.57;;
62848;SDS011;48941;49.516;8.286;2022-10-31T03:14:26;12.85;;;6.20;;
62848;SDS011;48941;49.516;8.286;2022-10-31T03:17:01;13.25;;;5.85;;
62848;SDS011;48941;49.516;8.286;2022-10-31T03:19:36;13.93;;;6.68;;
62848;SDS011;48941;49.516;8.286;2022-10-31T03:22:07;10.50;;;6.63;;
62848;SDS011;48941;49.516;8.286;2022-10-31T03:24:42;19.50;;;7.57;;
62848;SDS011;48941;49.516;8.286;2022-10-31T03:27:12;17.15;;;7.57;;
62848;SDS011;48941;49.516;8.286;2022-10-31T03:29:43;16.52;;;8.38;;
62848;SDS011;48941;49.516;8.286;2022-10-31T03:32:13;17.83;;;7.55;;
62848;SDS011;48941;49.516;8.286;2022-10-31T03:34:46;15.05;;;7.38;;
62848;SDS011;48941;49.516;8.286;2022-10-31T03:37:16;17.35;;;7.40;;
62848;SDS011;48941;49.516;8.286;2022-10-31T03:39:48;11.90;;;6.78;;
62848;SDS011;48941;49.516;8.286;2022-10-31T03:42:18;11.27;;;7.10;;
62848;SDS011;48941;49.516;8.286;2022-10-31T03:44:51;16.10;;;6.88;;
62848;SDS011;48941;49.516;8.286;2022-10-31T03:47:24;14.63;;;7.35;;
62848;SDS011;48941;49.516;8.286;2022-10-31T03:49:54;15.13;;;7.00;;
62848;SDS011;48941;49.516;8.286;2022-10-31T03:52:23;21.77;;;7.78;;
62848;SDS011;48941;49.516;8.286;2022-10-31T03:54:57;13.13;;;6.40;;
62848;SDS011;48941;49.516;8.286;2022-10-31T03:57:32;13.98;;;7.05;;
62848;SDS011;48941;49.516;8.286;2022-10-31T04:00:06;12.00;;;6.95;;
62848;SDS011;48941;49.516;8.286;2022-10-31T04:02:38;12.68;;;6.53;;
62848;SDS011;48941;49.516;8.286;2022-10-31T04:07:41;13.45;;;6.57;;
62848;SDS011;48941;49.516;8.286;2022-10-31T04:10:14;15.02;;;7.03;;
62848;SDS011;48941;49.516;8.286;2022-10-31T04:12:43;19.48;;;7.03;;
62848;SDS011;48941;49.516;8.286;2022-10-31T04:15:15;11.75;;;6.57;;
62848;SDS011;48941;49.516;8.286;2022-10-31T04:17:44;12.40;;;6.07;;
62848;SDS011;48941;49.516;8.286;2022-10-31T04:20:16;14.88;;;6.57;;
62848;SDS011;48941;49.516;8.286;2022-10-31T04:22:45;12.55;;;7.55;;
62848;SDS011;48941;49.516;8.286;2022-10-31T04:25:13;15.70;;;6.50;;
62848;SDS011;48941;49.516;8.286;2022-10-31T04:27:41;12.07;;;6.25;;
62848;SDS011;48941;49.516;8.286;2022-10-31T04:30:09;12.57;;;6.38;;
62848;SDS011;48941;49.516;8.286;2022-10-31T04:32:38;12.15;;;6.05;;
62848;SDS011;48941;49.516;8.286;2022-10-31T04:35:06;12.10;;;6.10;;
62848;SDS011;48941;49.516;8.286;2022-10-31T04:37:36;12.93;;;6.20;;
62848;SDS011;48941;49.516;8.286;2022-10-31T04:40:04;12.98;;;6.10;;
62848;SDS011;48941;49.516;8.286;2022-10-31T04:42:33;13.02;;;6.82;;
62848;SDS011;48941;49.516;8.286;2022-10-31T04:45:01;12.38;;;6.60;;
62848;SDS011;48941;49.516;8.286;2022-10-31T04:47:30;17.50;;;6.63;;
62848;SDS011;48941;49.516;8.286;2022-10-31T04:49:59;13.93;;;5.50;;
62848;SDS011;48941;49.516;8.286;2022-10-31T04:52:27;11.18;;;5.93;;
62848;SDS011;48941;49.516;8.286;2022-10-31T04:54:56;11.13;;;6.00;;
62848;SDS011;48941;49.516;8.286;2022-10-31T04:57:24;12.88;;;5.90;;
62848;SDS011;48941;49.516;8.286;2022-10-31T04:59:52;8.77;;;5.60;;
62848;SDS011;48941;49.516;8.286;2022-10-31T05:02:20;14.27;;;6.20;;
62848;SDS011;48941;49.516;8.286;2022-10-31T05:04:49;12.90;;;5.70;;
62848;SDS011;48941;49.516;8.286;2022-10-31T05:07:17;9.85;;;5.85;;
62848;SDS011;48941;49.516;8.286;2022-10-31T05:09:45;13.45;;;6.30;;
62848;SDS011;48941;49.516;8.286;2022-10-31T05:12:14;14.10;;;6.07;;
62848;SDS011;48941;49.516;8.286;2022-10-31T05:14:42;10.07;;;5.85;;
62848;SDS011;48941;49.516;8.286;2022-10-31T05:17:14;13.07;;;6.05;;
62848;SDS011;48941;49.516;8.286;2022-10-31T05:19:42;11.55;;;6.05;;
62848;SDS011;48941;49.516;8.286;2022-10-31T05:22:10;14.60;;;6.90;;
62848;SDS011;48941;49.516;8.286;2022-10-31T05:24:38;9.30;;;5.47;;
62848;SDS011;48941;49.516;8.286;2022-10-31T05:27:06;8.30;;;5.45;;
62848;SDS011;48941;49.516;8.286;2022-10-31T05:29:35;13.30;;;5.90;;
62848;SDS011;48941;49.516;8.286;2022-10-31T05:32:03;12.15;;;5.30;;
62848;SDS011;48941;49.516;8.286;2022-10-31T05:34:31;11.50;;;5.30;;
62848;SDS011;48941;49.516;8.286;2022-10-31T05:37:00;10.20;;;5.85;;
62848;SDS011;48941;49.516;8.286;2022-10-31T05:39:27;13.35;;;5.68;;
62848;SDS011;48941;49.516;8.286;2022-10-31T05:41:56;11.75;;;5.90;;
62848;SDS011;48941;49.516;8.286;2022-10-31T05:44:24;9.13;;;5.50;;
62848;SDS011;48941;49.516;8.286;2022-10-31T05:46:53;11.80;;;5.43;;
62848;SDS011;48941;49.516;8.286;2022-10-31T05:49:21;9.65;;;5.40;;
62848;SDS011;48941;49.516;8.286;2022-10-31T05:51:50;15.27;;;6.07;;
62848;SDS011;48941;49.516;8.286;2022-10-31T05:54:18;13.95;;;5.90;;
62848;SDS011;48941;49.516;8.286;2022-10-31T05:56:46;9.25;;;5.55;;
62848;SDS011;48941;49.516;8.286;2022-10-31T05:59:14;13.43;;;5.90;;
62848;SDS011;48941;49.516;8.286;2022-10-31T06:01:42;13.55;;;5.85;;
62848;SDS011;48941;49.516;8.286;2022-10-31T06:04:12;13.80;;;5.60;;
62848;SDS011;48941;49.516;8.286;2022-10-31T06:06:40;12.18;;;6.07;;
62848;SDS011;48941;49.516;8.286;2022-10-31T06:09:08;12.88;;;6.10;;
62848;SDS011;48941;49.516;8.286;2022-10-31T06:11:36;13.07;;;5.25;;
62848;SDS011;48941;49.516;8.286;2022-10-31T06:14:05;13.30;;;6.07;;
62848;SDS011;48941;49.516;8.286;2022-10-31T06:16:33;13.40;;;6.05;;
62848;SDS011;48941;49.516;8.286;2022-10-31T06:19:01;13.07;;;6.13;;
62848;SDS011;48941;49.516;8.286;2022-10-31T06:21:30;10.10;;;5.68;;
62848;SDS011;48941;49.516;8.286;2022-10-31T06:23:58;9.88;;;5.68;;
62848;SDS011;48941;49.516;8.286;2022-10-31T06:26:26;12.48;;;6.00;;
62848;SDS011;48941;49.516;8.286;2022-10-31T06:28:54;11.52;;;6.30;;
62848;SDS011;48941;49.516;8.286;2022-10-31T06:31:29;12.02;;;6.35;;
62848;SDS011;48941;49.516;8.286;2022-10-31T06:33:57;14.50;;;6.28;;
62848;SDS011;48941;49.516;8.286;2022-10-31T06:36:25;20.25;;;7.05;;
62848;SDS011;48941;49.516;8.286;2022-10-31T06:41:28;17.02;;;6.93;;
62848;SDS011;48941;49.516;8.286;2022-10-31T06:43:55;16.58;;;7.45;;
62848;SDS011;48941;49.516;8.286;2022-10-31T06:46:23;16.77;;;6.47;;
62848;SDS011;48941;49.516;8.286;2022-10-31T06:48:51;15.07;;;6.78;;
62848;SDS011;48941;49.516;8.286;2022-10-31T06:51:19;14.90;;;6.80;;
62848;SDS011;48941;49.516;8.286;2022-10-31T06:53:47;20.85;;;6.65;;
62848;SDS011;48941;49.516;8.286;2022-10-31T06:56:17;13.40;;;7.07;;
62848;SDS011;48941;49.516;8.286;2022-10-31T06:58:45;17.38;;;6.78;;
62848;SDS011;48941;49.516;8.286;2022-10-31T07:01:13;17.15;;;6.43;;
62848;SDS011;48941;49.516;8.286;2022-10-31T07:03:41;12.32;;;6.20;;
62848;SDS011;48941;49.516;8.286;2022-10-31T07:06:09;8.73;;;5.55;;
62848;SDS011;48941;49.516;8.286;2022-10-31T07:08:37;15.07;;;7.03;;
62848;SDS011;48941;49.516;8.286;2022-10-31T07:11:05;12.18;;;6.03;;
62848;SDS011;48941;49.516;8.286;2022-10-31T07:13:34;13.35;;;6.63;;
62848;SDS011;48941;49.516;8.286;2022-10-31T07:16:03;16.60;;;6.40;;
62848;SDS011;48941;49.516;8.286;2022-10-31T07:18:32;11.70;;;6.70;;
62848;SDS011;48941;49.516;8.286;2022-10-31T07:21:01;19.73;;;7.47;;
62848;SDS011;48941;49.516;8.286;2022-10-31T07:23:29;15.88;;;6.72;;
62848;SDS011;48941;49.516;8.286;2022-10-31T07:25:57;14.77;;;7.13;;
62848;SDS011;48941;49.516;8.286;2022-10-31T07:28:26;12.00;;;6.85;;
62848;SDS011;48941;49.516;8.286;2022-10-31T07:30:56;14.70;;;8.20;;
62848;SDS011;48941;49.516;8.286;2022-10-31T07:33:25;16.00;;;7.60;;
62848;SDS011;48941;49.516;8.286;2022-10-31T07:35:53;16.17;;;8.18;;
62848;SDS011;48941;49.516;8.286;2022-10-31T07:38:21;16.88;;;6.90;;
62848;SDS011;48941;49.516;8.286;2022-10-31T07:40:50;16.30;;;8.07;;
62848;SDS011;48941;49.516;8.286;2022-10-31T07:43:19;16.35;;;7.43;;
62848;SDS011;48941;49.516;8.286;2022-10-31T07:45:50;12.82;;;7.30;;
62848;SDS011;48941;49.516;8.286;2022-10-31T07:48:20;19.10;;;8.68;;
62848;SDS011;48941;49.516;8.286;2022-10-31T07:50:48;17.50;;;8.23;;
62848;SDS011;48941;49.516;8.286;2022-10-31T07:53:16;13.40;;;7.68;;
62848;SDS011;48941;49.516;8.286;2022-10-31T07:55:44;16.63;;;7.95;;
62848;SDS011;48941;49.516;8.286;2022-10-31T07:58:12;20.00;;;7.93;;
62848;SDS011;48941;49.516;8.286;2022-10-31T08:00:42;16.15;;;7.57;;
62848;SDS011;48941;49.516;8.286;2022-10-31T08:03:12;18.05;;;7.72;;
62848;SDS011;48941;49.516;8.286;2022-10-31T08:05:42;14.20;;;7.93;;
62848;SDS011;48941;49.516;8.286;2022-10-31T08:08:12;18.73;;;8.30;;
62848;SDS011;48941;49.516;8.286;2022-10-31T08:10:41;16.00;;;8.95;;
62848;SDS011;48941;49.516;8.286;2022-10-31T08:13:10;11.65;;;8.63;;
62848;SDS011;48941;49.516;8.286;2022-10-31T08:15:40;14.65;;;8.13;;
62848;SDS011;48941;49.516;8.286;2022-10-31T08:18:10;16.60;;;8.82;;
62848;SDS011;48941;49.516;8.286;2022-10-31T08:20:40;13.65;;;7.75;;
62848;SDS011;48941;49.516;8.286;2022-10-31T08:23:11;16.88;;;7.95;;
62848;SDS011;48941;49.516;8.286;2022-10-31T08:25:39;18.48;;;7.78;;
62848;SDS011;48941;49.516;8.286;2022-10-31T08:28:08;11.60;;;7.78;;
62848;SDS011;48941;49.516;8.286;2022-10-31T08:30:38;14.85;;;7.97;;
62848;SDS011;48941;49.516;8.286;2022-10-31T08:33:06;15.40;;;8.25;;
62848;SDS011;48941;49.516;8.286;2022-10-31T08:35:37;17.83;;;8.05;;
62848;SDS011;48941;49.516;8.286;2022-10-31T08:38:05;15.63;;;7.82;;
62848;SDS011;48941;49.516;8.286;2022-10-31T08:40:35;17.70;;;7.88;;
62848;SDS011;48941;49.516;8.286;2022-10-31T08:43:04;15.77;;;7.63;;
62848;SDS011;48941;49.516;8.286;2022-10-31T08:45:33;22.58;;;8.52;;
62848;SDS011;48941;49.516;8.286;2022-10-31T08:48:02;15.00;;;7.95;;
62848;SDS011;48941;49.516;8.286;2022-10-31T08:50:33;17.00;;;8.05;;
62848;SDS011;48941;49.516;8.286;2022-10-31T08:53:03;15.15;;;8.00;;
62848;SDS011;48941;49.516;8.286;2022-10-31T08:55:32;12.95;;;7.47;;
62848;SDS011;48941;49.516;8.286;2022-10-31T08:58:03;22.52;;;9.13;;
62848;SDS011;48941;49.516;8.286;2022-10-31T09:00:32;16.95;;;7.80;;
62848;SDS011;48941;49.516;8.286;2022-10-31T09:03:01;14.70;;;7.78;;
62848;SDS011;48941;49.516;8.286;2022-10-31T09:05:30;14.88;;;7.40;;
62848;SDS011;48941;49.516;8.286;2022-10-31T09:07:59;20.10;;;7.78;;
62848;SDS011;48941;49.516;8.286;2022-10-31T09:10:30;13.50;;;7.75;;
62848;SDS011;48941;49.516;8.286;2022-10-31T09:13:00;11.38;;;7.43;;
62848;SDS011;48941;49.516;8.286;2022-10-31T09:15:34;14.40;;;7.38;;
62848;SDS011;48941;49.516;8.286;2022-10-31T09:18:04;15.88;;;7.80;;
62848;SDS011;48941;49.516;8.286;2022-10-31T09:20:33;14.38;;;7.40;;
62848;SDS011;48941;49.516;8.286;2022-10-31T09:23:02;17.35;;;8.38;;
62848;SDS011;48941;49.516;8.286;2022-10-31T09:25:32;14.07;;;7.90;;
62848;SDS011;48941;49.516;8.286;2022-10-31T09:28:02;14.02;;;7.93;;
62848;SDS011;48941;49.516;8.286;2022-10-31T09:30:32;16.98;;;8.10;;
62848;SDS011;48941;49.516;8.286;2022-10-31T09:33:04;24.92;;;8.52;;
62848;SDS011;48941;49.516;8.286;2022-10-31T09:35:33;15.07;;;8.30;;
62848;SDS011;48941;49.516;8.286;2022-10-31T09:38:01;16.05;;;8.50;;
62848;SDS011;48941;49.516;8.286;2022-10-31T09:40:31;21.85;;;8.93;;
62848;SDS011;48941;49.516;8.286;2022-10-31T09:43:03;17.95;;;8.80;;
62848;SDS011;48941;49.516;8.286;2022-10-31T09:45:43;17.40;;;9.57;;
62848;SDS011;48941;49.516;8.286;2022-10-31T09:48:23;15.60;;;8.73;;
62848;SDS011;48941;49.516;8.286;2022-10-31T09:51:00;18.05;;;9.63;;
62848;SDS011;48941;49.516;8.286;2022-10-31T09:53:33;16.00;;;9.27;;
62848;SDS011;48941;49.516;8.286;2022-10-31T09:56:05;17.42;;;9.90;;
62848;SDS011;48941;49.516;8.286;2022-10-31T09:58:39;15.75;;;9.45;;
62848;SDS011;48941;49.516;8.286;2022-10-31T10:01:16;18.45;;;10.10;;
62848;SDS011;48941;49.516;8.286;2022-10-31T10:03:51;24.38;;;10.02;;
62848;SDS011;48941;49.516;8.286;2022-10-31T10:06:25;24.20;;;9.40;;
62848;SDS011;48941;49.516;8.286;2022-10-31T10:08:56;18.38;;;9.65;;
62848;SDS011;48941;49.516;8.286;2022-10-31T10:11:28;20.17;;;10.50;;
62848;SDS011;48941;49.516;8.286;2022-10-31T10:14:12;18.60;;;10.70;;
62848;SDS011;48941;49.516;8.286;2022-10-31T10:16:55;33.92;;;10.63;;
62848;SDS011;48941;49.516;8.286;2022-10-31T10:19:44;19.48;;;10.38;;
62848;SDS011;48941;49.516;8.286;2022-10-31T10:22:22;22.38;;;10.90;;
62848;SDS011;48941;49.516;8.286;2022-10-31T10:25:01;20.73;;;9.88;;
62848;SDS011;48941;49.516;8.286;2022-10-31T10:27:43;18.15;;;10.07;;
62848;SDS011;48941;49.516;8.286;2022-10-31T10:30:18;20.23;;;9.32;;
62848;SDS011;48941;49.516;8.286;2022-10-31T10:32:49;18.13;;;9.63;;
62848;SDS011;48941;49.516;8.286;2022-10-31T10:35:22;24.63;;;10.27;;
62848;SDS011;48941;49.516;8.286;2022-10-31T10:37:55;22.00;;;9.90;;
62848;SDS011;48941;49.516;8.286;2022-10-31T10:40:27;19.75;;;10.02;;
62848;SDS011;48941;49.516;8.286;2022-10-31T10:42:59;21.08;;;9.88;;
62848;SDS011;48941;49.516;8.286;2022-10-31T10:45:48;19.70;;;9.88;;
62848;SDS011;48941;49.516;8.286;2022-10-31T10:48:50;16.73;;;10.18;;
62848;SDS011;48941;49.516;8.286;2022-10-31T10:51:24;17.60;;;9.60;;
62848;SDS011;48941;49.516;8.286;2022-10-31T10:54:31;19.05;;;9.43;;
62848;SDS011;48941;49.516;8.286;2022-10-31T10:57:09;19.90;;;9.50;;
62848;SDS011;48941;49.516;8.286;2022-10-31T10:59:46;18.40;;;9.80;;
62848;SDS011;48941;49.516;8.286;2022-10-31T11:02:16;18.67;;;10.48;;
62848;SDS011;48941;49.516;8.286;2022-10-31T11:04:47;19.15;;;9.65;;
62848;SDS011;48941;49.516;8.286;2022-10-31T11:07:18;18.02;;;9.77;;
62848;SDS011;48941;49.516;8.286;2022-10-31T11:09:46;19.30;;;10.23;;
62848;SDS011;48941;49.516;8.286;2022-10-31T11:12:17;23.50;;;9.85;;
62848;SDS011;48941;49.516;8.286;2022-10-31T11:14:51;16.13;;;10.45;;
62848;SDS011;48941;49.516;8.286;2022-10-31T11:17:26;16.63;;;9.70;;
62848;SDS011;48941;49.516;8.286;2022-10-31T11:20:03;17.23;;;10.52;;
62848;SDS011;48941;49.516;8.286;2022-10-31T11:22:32;17.13;;;9.60;;
62848;SDS011;48941;49.516;8.286;2022-10-31T11:25:00;21.73;;;9.30;;
62848;SDS011;48941;49.516;8.286;2022-10-31T11:27:38;16.70;;;9.20;;
62848;SDS011;48941;49.516;8.286;2022-10-31T11:30:07;24.02;;;9.93;;
62848;SDS011;48941;49.516;8.286;2022-10-31T11:32:37;15.38;;;9.55;;
62848;SDS011;48941;49.516;8.286;2022-10-31T11:35:16;15.73;;;8.93;;
62848;SDS011;48941;49.516;8.286;2022-10-31T11:37:46;18.48;;;8.70;;
62848;SDS011;48941;49.516;8.286;2022-10-31T11:40:16;22.67;;;10.15;;
62848;SDS011;48941;49.516;8.286;2022-10-31T11:42:46;15.82;;;9.73;;
62848;SDS011;48941;49.516;8.286;2022-10-31T11:45:17;21.33;;;9.93;;
62848;SDS011;48941;49.516;8.286;2022-10-31T11:47:53;15.65;;;10.30;;
62848;SDS011;48941;49.516;8.286;2022-10-31T11:50:28;17.98;;;9.80;;
62848;SDS011;48941;49.516;8.286;2022-10-31T11:53:00;19.17;;;10.20;;
62848;SDS011;48941;49.516;8.286;2022-10-31T11:55:30;25.20;;;10.32;;
62848;SDS011;48941;49.516;8.286;2022-10-31T11:58:00;20.48;;;9.65;;
62848;SDS011;48941;49.516;8.286;2022-10-31T12:00:29;19.13;;;9.93;;
62848;SDS011;48941;49.516;8.286;2022-10-31T12:03:10;20.63;;;9.82;;
62848;SDS011;48941;49.516;8.286;2022-10-31T12:05:42;19.70;;;10.15;;
62848;SDS011;48941;49.516;8.286;2022-10-31T12:08:14;16.33;;;9.35;;
62848;SDS011;48941;49.516;8.286;2022-10-31T12:10:47;20.00;;;9.85;;
62848;SDS011;48941;49.516;8.286;2022-10-31T12:13:31;18.05;;;9.57;;
62848;SDS011;48941;49.516;8.286;2022-10-31T12:16:04;22.02;;;10.07;;
62848;SDS011;48941;49.516;8.286;2022-10-31T12:18:42;18.15;;;8.70;;
62848;SDS011;48941;49.516;8.286;2022-10-31T12:21:24;18.63;;;9.52;;
62848;SDS011;48941;49.516;8.286;2022-10-31T12:24:10;17.38;;;9.70;;
62848;SDS011;48941;49.516;8.286;2022-10-31T12:26:47;21.27;;;9.60;;
62848;SDS011;48941;49.516;8.286;2022-10-31T12:29:30;17.30;;;10.20;;
62848;SDS011;48941;49.516;8.286;2022-10-31T12:32:13;16.90;;;9.02;;
62848;SDS011;48941;49.516;8.286;2022-10-31T12:37:47;15.77;;;9.30;;
62848;SDS011;48941;49.516;8.286;2022-10-31T12:40:28;18.65;;;10.63;;
62848;SDS011;48941;49.516;8.286;2022-10-31T12:43:08;16.27;;;9.55;;
62848;SDS011;48941;49.516;8.286;2022-10-31T12:45:51;23.25;;;10.10;;
62848;SDS011;48941;49.516;8.286;2022-10-31T12:48:29;19.33;;;9.65;;
62848;SDS011;48941;49.516;8.286;2022-10-31T12:51:10;22.52;;;10.10;;
62848;SDS011;48941;49.516;8.286;2022-10-31T12:53:53;15.32;;;9.35;;
62848;SDS011;48941;49.516;8.286;2022-10-31T12:56:36;19.60;;;9.98;;
62848;SDS011;48941;49.516;8.286;2022-10-31T12:59:14;23.17;;;10.88;;
62848;SDS011;48941;49.516;8.286;2022-10-31T13:01:48;16.75;;;9.77;;
62848;SDS011;48941;49.516;8.286;2022-10-31T13:04:21;20.48;;;10.13;;
62848;SDS011;48941;49.516;8.286;2022-10-31T13:06:56;19.55;;;10.52;;
62848;SDS011;48941;49.516;8.286;2022-10-31T13:09:30;17.95;;;10.40;;
62848;SDS011;48941;49.516;8.286;2022-10-31T13:12:04;14.23;;;9.40;;
62848;SDS011;48941;49.516;8.286;2022-10-31T13:14:36;19.65;;;10.15;;
62848;SDS011;48941;49.516;8.286;2022-10-31T13:17:09;21.90;;;10.27;;
62848;SDS011;48941;49.516;8.286;2022-10-31T13:19:46;24.75;;;9.27;;
62848;SDS011;48941;49.516;8.286;2022-10-31T13:22:16;19.83;;;9.45;;
62848;SDS011;48941;49.516;8.286;2022-10-31T13:24:52;15.90;;;10.05;;
62848;SDS011;48941;49.516;8.286;2022-10-31T13:27:25;20.20;;;12.00;;
62848;SDS011;48941;49.516;8.286;2022-10-31T13:29:58;19.52;;;10.60;;
62848;SDS011;48941;49.516;8.286;2022-10-31T13:32:29;21.83;;;10.63;;
62848;SDS011;48941;49.516;8.286;2022-10-31T13:35:07;23.40;;;10.85;;
62848;SDS011;48941;49.516;8.286;2022-10-31T13:37:43;19.52;;;9.65;;
62848;SDS011;48941;49.516;8.286;2022-10-31T13:40:24;22.88;;;9.73;;
62848;SDS011;48941;49.516;8.286;2022-10-31T13:43:02;14.38;;;8.95;;
62848;SDS011;48941;49.516;8.286;2022-10-31T13:45:47;18.05;;;9.70;;
62848;SDS011;48941;49.516;8.286;2022-10-31T13:48:31;19.52;;;9.52;;
62848;SDS011;48941;49.516;8.286;2022-10-31T13:51:03;16.75;;;9.38;;
62848;SDS011;48941;49.516;8.286;2022-10-31T13:53:41;17.30;;;9.38;;
62848;SDS011;48941;49.516;8.286;2022-10-31T13:56:20;14.48;;;9.10;;
62848;SDS011;48941;49.516;8.286;2022-10-31T13:59:04;26.92;;;9.18;;
62848;SDS011;48941;49.516;8.286;2022-10-31T14:01:46;14.05;;;9.20;;
62848;SDS011;48941;49.516;8.286;2022-10-31T14:04:17;16.30;;;8.40;;
62848;SDS011;48941;49.516;8.286;2022-10-31T14:06:53;15.10;;;8.65;;
62848;SDS011;48941;49.516;8.286;2022-10-31T14:09:32;13.60;;;8.10;;
62848;SDS011;48941;49.516;8.286;2022-10-31T14:12:04;18.40;;;7.93;;
62848;SDS011;48941;49.516;8.286;2022-10-31T14:14:39;13.63;;;7.50;;
62848;SDS011;48941;49.516;8.286;2022-10-31T14:17:16;15.35;;;7.30;;
62848;SDS011;48941;49.516;8.286;2022-10-31T14:20:00;16.42;;;7.40;;
62848;SDS011;48941;49.516;8.286;2022-10-31T14:22:48;13.95;;;7.50;;
62848;SDS011;48941;49.516;8.286;2022-10-31T14:25:26;16.90;;;8.23;;
62848;SDS011;48941;49.516;8.286;2022-10-31T14:27:57;19.48;;;8.30;;
62848;SDS011;48941;49.516;8.286;2022-10-31T14:30:28;16.33;;;7.68;;
62848;SDS011;48941;49.516;8.286;2022-10-31T14:32:57;18.50;;;7.88;;
62848;SDS011;48941;49.516;8.286;2022-10-31T14:35:45;21.75;;;7.82;;
62848;SDS011;48941;49.516;8.286;2022-10-31T14:38:25;21.63;;;8.38;;
62848;SDS011;48941;49.516;8.286;2022-10-31T14:41:06;20.52;;;8.15;;
62848;SDS011;48941;49.516;8.286;2022-10-31T14:43:51;17.05;;;7.47;;
62848;SDS011;48941;49.516;8.286;2022-10-31T14:46:54;14.30;;;7.63;;
62848;SDS011;48941;49.516;8.286;2022-10-31T14:49:34;18.83;;;8.43;;
62848;SDS011;48941;49.516;8.286;2022-10-31T14:52:14;25.65;;;7.88;;
62848;SDS011;48941;49.516;8.286;2022-10-31T14:54:45;15.07;;;7.78;;
62848;SDS011;48941;49.516;8.286;2022-10-31T14:57:19;16.10;;;7.32;;
62848;SDS011;48941;49.516;8.286;2022-10-31T14:59:52;17.30;;;7.68;;
62848;SDS011;48941;49.516;8.286;2022-10-31T15:02:30;15.43;;;8.27;;
62848;SDS011;48941;49.516;8.286;2022-10-31T15:05:05;21.80;;;12.25;;
62848;SDS011;48941;49.516;8.286;2022-10-31T15:07:34;19.17;;;12.33;;
62848;SDS011;48941;49.516;8.286;2022-10-31T15:10:06;20.10;;;12.00;;
62848;SDS011;48941;49.516;8.286;2022-10-31T15:12:48;20.45;;;12.45;;
62848;SDS011;48941;49.516;8.286;2022-10-31T15:15:18;27.00;;;13.15;;